createdAt,value
2022-10-13T00:00:49.225Z,102004.75
2022-10-13T00:03:21.722Z,102003.81
2022-10-13T00:05:53.127Z,102007.38
2022-10-13T00:08:26.250Z,102009.94
2022-10-13T00:10:56.028Z,102007.28
2022-10-13T00:13:25.593Z,101999.41
2022-10-13T00:15:55.352Z,101995.00
2022-10-13T00:18:27.618Z,102000.16
2022-10-13T00:20:57.154Z,102004.69
2022-10-13T00:23:26.927Z,101998.44
2022-10-13T00:25:56.443Z,102001.91
2022-10-13T00:28:26.104Z,101995.84
2022-10-13T00:30:55.660Z,101996.78
2022-10-13T00:33:28.322Z,101995.09
2022-10-13T00:35:57.981Z,101995.97
2022-10-13T00:38:27.548Z,101990.72
2022-10-13T00:40:59.220Z,101989.00
2022-10-13T00:43:31.098Z,102002.22
2022-10-13T00:46:00.662Z,101993.41
2022-10-13T00:48:33.826Z,101990.88
2022-10-13T00:51:03.658Z,101991.72
2022-10-13T00:53:37.154Z,101994.44
2022-10-13T00:56:08.662Z,101997.19
2022-10-13T00:58:40.504Z,101994.56
2022-10-13T01:01:11.244Z,101995.50
2022-10-13T01:03:44.296Z,102003.31
2022-10-13T01:06:17.846Z,101997.22
2022-10-13T01:08:50.664Z,101996.44
2022-10-13T01:11:41.279Z,101989.34
2022-10-13T01:14:20.651Z,101975.41
2022-10-13T01:17:00.709Z,101960.56
2022-10-13T01:20:06.968Z,101965.72
2022-10-13T01:22:49.901Z,101965.72
2022-10-13T01:25:36.972Z,101973.56
2022-10-13T01:28:39.020Z,101980.59
2022-10-13T01:31:22.111Z,101986.81
2022-10-13T01:34:00.491Z,101983.38
2022-10-13T01:36:36.030Z,101986.09
2022-10-13T01:39:11.834Z,101991.31
2022-10-13T01:41:44.935Z,101985.22
2022-10-13T01:44:19.642Z,101978.19
2022-10-13T01:46:54.640Z,101980.81
2022-10-13T01:49:28.914Z,101974.63
2022-10-13T01:52:04.793Z,101967.69
2022-10-13T01:54:35.265Z,101938.75
2022-10-13T01:57:05.220Z,101934.56
2022-10-13T01:59:38.651Z,101941.53
2022-10-13T02:02:19.872Z,101940.66
2022-10-13T02:04:59.427Z,101925.81
2022-10-13T02:07:35.112Z,101917.09
2022-10-13T02:10:10.411Z,101928.44
2022-10-13T02:12:45.465Z,101933.66
2022-10-13T02:15:18.948Z,101930.09
2022-10-13T02:17:51.229Z,101939.75
2022-10-13T02:20:23.198Z,101930.19
2022-10-13T02:22:58.755Z,101927.53
2022-10-13T02:25:28.966Z,101917.00
2022-10-13T02:28:01.080Z,101902.88
2022-10-13T02:30:33.332Z,101906.44
2022-10-13T02:33:06.052Z,101918.75
2022-10-13T02:35:35.986Z,101915.31
2022-10-13T02:38:05.770Z,101917.00
2022-10-13T02:40:35.648Z,101913.53
2022-10-13T02:43:05.386Z,101915.22
2022-10-13T02:45:35.013Z,101909.09
2022-10-13T02:48:07.586Z,101908.28
2022-10-13T02:50:37.643Z,101905.91
2022-10-13T02:53:07.218Z,101909.44
2022-10-13T02:55:36.782Z,101905.09
2022-10-13T02:58:06.401Z,101902.69
2022-10-13T03:00:36.063Z,101892.91
2022-10-13T03:03:08.746Z,101892.91
2022-10-13T03:05:38.299Z,101892.81
2022-10-13T03:08:08.462Z,101885.78
2022-10-13T03:10:38.078Z,101885.78
2022-10-13T03:13:07.662Z,101878.72
2022-10-13T03:15:37.209Z,101880.50
2022-10-13T03:18:09.480Z,101879.63
2022-10-13T03:20:39.014Z,101879.69
2022-10-13T03:23:09.121Z,101876.16
2022-10-13T03:25:39.145Z,101867.47
2022-10-13T03:28:08.686Z,101865.78
2022-10-13T03:30:38.306Z,101857.81
2022-10-13T03:33:10.616Z,101850.78
2022-10-13T03:35:40.328Z,101846.34
2022-10-13T03:38:10.580Z,101839.34
2022-10-13T03:40:40.551Z,101819.22
2022-10-13T03:43:10.746Z,101843.72
2022-10-13T03:45:40.463Z,101861.13
2022-10-13T03:48:12.592Z,101868.94
2022-10-13T03:50:42.229Z,101865.63
2022-10-13T03:53:12.629Z,101872.63
2022-10-13T03:55:42.293Z,101864.69
2022-10-13T03:58:11.919Z,101858.53
2022-10-13T04:00:41.995Z,101851.56
2022-10-13T04:03:14.933Z,101865.56
2022-10-13T04:05:45.077Z,101861.28
2022-10-13T04:08:15.242Z,101867.41
2022-10-13T04:10:45.126Z,101856.19
2022-10-13T04:13:14.833Z,101868.38
2022-10-13T04:15:44.792Z,101869.25
2022-10-13T04:18:17.755Z,101868.41
2022-10-13T04:20:47.416Z,101872.66
2022-10-13T04:23:17.330Z,101871.81
2022-10-13T04:25:46.945Z,101876.25
2022-10-13T04:28:16.590Z,101866.56
2022-10-13T04:30:49.442Z,101869.19
2022-10-13T04:33:21.937Z,101857.81
2022-10-13T04:35:52.013Z,101857.91
2022-10-13T04:38:21.569Z,101847.31
2022-10-13T04:40:51.244Z,101854.25
2022-10-13T04:43:20.928Z,101850.03
2022-10-13T04:45:50.462Z,101854.34
2022-10-13T04:48:22.668Z,101853.47
2022-10-13T04:51:01.676Z,101847.41
2022-10-13T04:53:31.681Z,101849.09
2022-10-13T04:56:04.454Z,101851.69
2022-10-13T04:58:35.585Z,101858.66
2022-10-13T05:01:05.663Z,101858.75
2022-10-13T05:03:38.273Z,101857.97
2022-10-13T05:06:08.487Z,101851.91
2022-10-13T05:08:38.151Z,101850.22
2022-10-13T05:11:08.127Z,101851.91
2022-10-13T05:13:38.611Z,101847.63
2022-10-13T05:16:13.062Z,101841.47
2022-10-13T05:18:45.654Z,101851.94
2022-10-13T05:21:17.568Z,101852.84
2022-10-13T05:23:48.137Z,101848.47
2022-10-13T05:26:19.355Z,101855.50
2022-10-13T05:28:49.354Z,101849.38
2022-10-13T05:31:21.490Z,101835.50
2022-10-13T05:33:54.794Z,101837.19
2022-10-13T05:36:26.242Z,101833.78
2022-10-13T05:38:56.878Z,101830.22
2022-10-13T05:41:28.093Z,101823.28
2022-10-13T05:44:01.672Z,101816.22
2022-10-13T05:46:31.321Z,101805.66
2022-10-13T05:49:03.787Z,101800.34
2022-10-13T05:51:37.340Z,101808.13
2022-10-13T05:54:11.553Z,101798.47
2022-10-13T05:56:45.097Z,101792.34
2022-10-13T05:59:21.352Z,101794.94
2022-10-13T06:01:54.030Z,101807.13
2022-10-13T06:04:33.130Z,101814.09
2022-10-13T06:07:03.021Z,101813.28
2022-10-13T06:09:38.004Z,101820.47
2022-10-13T06:12:08.002Z,101817.00
2022-10-13T06:14:37.987Z,101817.94
2022-10-13T06:17:07.609Z,101826.84
2022-10-13T06:19:40.360Z,101822.47
2022-10-13T06:22:10.429Z,101816.41
2022-10-13T06:24:40.720Z,101814.84
2022-10-13T06:27:10.406Z,101820.97
2022-10-13T06:29:40.384Z,101820.94
2022-10-13T06:32:10.598Z,101828.94
2022-10-13T06:34:42.691Z,101828.28
2022-10-13T06:37:12.506Z,101832.56
2022-10-13T06:39:42.174Z,101828.28
2022-10-13T06:42:15.043Z,101831.78
2022-10-13T06:44:45.039Z,101830.09
2022-10-13T06:47:14.962Z,101827.44
2022-10-13T06:49:47.582Z,101822.28
2022-10-13T06:52:17.414Z,101820.56
2022-10-13T06:54:47.205Z,101816.25
2022-10-13T06:57:16.866Z,101821.53
2022-10-13T06:59:46.795Z,101826.09
2022-10-13T07:02:16.427Z,101826.91
2022-10-13T07:04:49.413Z,101824.31
2022-10-13T07:07:19.533Z,101818.22
2022-10-13T07:09:49.536Z,101818.25
2022-10-13T07:12:19.421Z,101809.47
2022-10-13T07:14:49.250Z,101802.53
2022-10-13T07:17:19.060Z,101794.69
2022-10-13T07:19:54.598Z,101802.59
2022-10-13T07:22:26.515Z,101808.75
2022-10-13T07:24:56.218Z,101804.38
2022-10-13T07:27:26.112Z,101810.53
2022-10-13T07:29:55.843Z,101808.78
2022-10-13T07:32:25.430Z,101808.03
2022-10-13T07:34:58.147Z,101815.94
2022-10-13T07:37:27.727Z,101810.72
2022-10-13T07:39:58.960Z,101808.13
2022-10-13T07:42:28.576Z,101806.53
2022-10-13T07:44:58.217Z,101799.59
2022-10-13T07:47:27.930Z,101812.84
2022-10-13T07:50:00.389Z,101809.38
2022-10-13T07:52:30.100Z,101807.59
2022-10-13T07:54:59.669Z,101807.59
2022-10-13T07:57:30.034Z,101802.34
2022-10-13T07:59:59.745Z,101805.88
2022-10-13T08:02:30.424Z,101807.63
2022-10-13T08:05:02.532Z,101806.84
2022-10-13T08:07:32.305Z,101805.97
2022-10-13T08:10:01.904Z,101802.47
2022-10-13T08:12:31.602Z,101809.50
2022-10-13T08:15:06.225Z,101813.00
2022-10-13T08:17:37.037Z,101820.03
2022-10-13T08:20:10.892Z,101812.19
2022-10-13T08:22:40.576Z,101817.53
2022-10-13T08:25:11.176Z,101808.75
2022-10-13T08:27:51.071Z,101807.84
2022-10-13T08:30:22.348Z,101807.88
2022-10-13T08:32:52.159Z,101791.25
2022-10-13T08:35:24.408Z,101788.59
2022-10-13T08:37:54.178Z,101792.13
2022-10-13T08:40:25.562Z,101786.00
2022-10-13T08:42:59.485Z,101792.13
2022-10-13T08:45:41.498Z,101785.16
2022-10-13T08:48:17.037Z,101794.81
2022-10-13T08:50:53.210Z,101800.09
2022-10-13T08:53:30.905Z,101808.97
2022-10-13T08:56:03.780Z,101806.44
2022-10-13T08:58:36.217Z,101813.50
2022-10-13T09:01:15.978Z,101800.31
2022-10-13T09:03:56.412Z,101805.63
2022-10-13T09:06:31.925Z,101801.31
2022-10-13T09:09:03.301Z,101803.19
2022-10-13T09:11:35.143Z,101799.75
2022-10-13T09:14:08.094Z,101802.38
2022-10-13T09:16:39.875Z,101793.63
2022-10-13T09:19:27.444Z,101798.88
2022-10-13T09:22:01.746Z,101790.22
2022-10-13T09:24:31.611Z,101796.38
2022-10-13T09:27:14.482Z,101798.09
2022-10-13T09:29:45.530Z,101792.88
2022-10-13T09:32:21.828Z,101797.41
2022-10-13T09:34:52.928Z,101797.44
2022-10-13T09:37:28.231Z,101801.81
2022-10-13T09:40:15.393Z,101797.50
2022-10-13T09:42:45.666Z,101798.53
2022-10-13T09:45:21.418Z,101789.03
2022-10-13T09:47:57.798Z,101788.31
2022-10-13T09:50:29.915Z,101784.06
2022-10-13T09:53:24.607Z,101783.38
2022-10-13T09:56:18.061Z,101778.09
2022-10-13T09:58:53.422Z,101792.19
2022-10-13T10:01:28.231Z,101794.00
2022-10-13T10:03:58.220Z,101788.78
2022-10-13T10:06:28.153Z,101790.44
2022-10-13T10:09:06.172Z,101787.00
2022-10-13T10:11:41.224Z,101782.78
2022-10-13T10:14:20.205Z,101777.63
2022-10-13T10:16:56.721Z,101782.09
2022-10-13T10:19:32.320Z,101779.34
2022-10-13T10:22:11.306Z,101767.97
2022-10-13T10:24:49.408Z,101763.56
2022-10-13T10:27:24.555Z,101762.69
2022-10-13T10:29:59.872Z,101760.06
2022-10-13T10:32:33.626Z,101753.13
2022-10-13T10:35:07.075Z,101763.56
2022-10-13T10:37:51.123Z,101762.66
2022-10-13T10:40:35.375Z,101751.13
2022-10-13T10:43:33.654Z,101754.78
2022-10-13T10:46:04.040Z,101747.00
2022-10-13T10:48:38.909Z,101744.53
2022-10-13T10:51:10.546Z,101749.06
2022-10-13T10:53:48.658Z,101750.03
2022-10-13T10:56:28.194Z,101749.16
2022-10-13T10:59:08.485Z,101746.53
2022-10-13T11:01:45.462Z,101736.78
2022-10-13T11:04:39.791Z,101747.25
2022-10-13T11:07:13.391Z,101738.34
2022-10-13T11:10:05.003Z,101746.28
2022-10-13T11:13:12.982Z,101744.59
2022-10-13T11:15:47.178Z,101737.59
2022-10-13T11:18:46.848Z,101735.81
2022-10-13T11:21:16.455Z,101725.28
2022-10-13T11:23:50.866Z,101728.75
2022-10-13T11:26:45.491Z,101726.06
2022-10-13T11:29:58.051Z,101723.47
2022-10-13T11:32:55.542Z,101718.31
2022-10-13T11:35:31.211Z,101708.81
2022-10-13T11:38:18.491Z,101702.84
2022-10-13T11:41:08.429Z,101703.63
2022-10-13T11:43:49.082Z,101705.53
2022-10-13T11:46:28.183Z,101702.91
2022-10-13T11:49:22.540Z,101705.56
2022-10-13T11:52:09.822Z,101694.69
2022-10-13T11:54:44.340Z,101688.50
2022-10-13T11:57:22.774Z,101696.44
2022-10-13T11:59:55.817Z,101687.63
2022-10-13T12:02:29.650Z,101683.28
2022-10-13T12:05:07.305Z,101690.34
2022-10-13T12:07:39.618Z,101690.31
2022-10-13T12:10:19.355Z,101684.06
2022-10-13T12:12:51.401Z,101682.13
2022-10-13T12:15:37.077Z,101686.56
2022-10-13T12:18:23.570Z,101683.84
2022-10-13T12:20:57.505Z,101690.00
2022-10-13T12:23:28.244Z,101687.19
2022-10-13T12:26:02.434Z,101685.50
2022-10-13T12:28:33.894Z,101683.75
2022-10-13T12:31:03.965Z,101674.91
2022-10-13T12:33:38.930Z,101677.41
2022-10-13T12:36:16.859Z,101679.28
2022-10-13T12:38:51.466Z,101677.50
2022-10-13T12:41:25.532Z,101675.72
2022-10-13T12:43:56.065Z,101681.00
2022-10-13T12:46:39.401Z,101678.31
2022-10-13T12:49:17.530Z,101681.91
2022-10-13T12:51:51.069Z,101674.00
2022-10-13T12:54:25.266Z,101671.31
2022-10-13T12:56:58.819Z,101669.44
2022-10-13T12:59:31.024Z,101673.69
2022-10-13T13:02:03.705Z,101665.88
2022-10-13T13:04:46.496Z,101666.78
2022-10-13T13:07:31.788Z,101662.44
2022-10-13T13:10:20.402Z,101664.28
2022-10-13T13:12:51.781Z,101661.78
2022-10-13T13:15:34.773Z,101663.59
2022-10-13T13:18:27.524Z,101661.81
2022-10-13T13:21:02.025Z,101663.56
2022-10-13T13:23:34.858Z,101673.16
2022-10-13T13:26:06.406Z,101665.19
2022-10-13T13:28:36.381Z,101662.53
2022-10-13T13:31:06.187Z,101660.75
2022-10-13T13:33:35.726Z,101651.97
2022-10-13T13:36:13.001Z,101657.22
2022-10-13T13:38:42.641Z,101644.03
2022-10-13T13:41:13.061Z,101655.44
2022-10-13T13:43:43.374Z,101657.16
2022-10-13T13:46:18.914Z,101652.81
2022-10-13T13:48:48.869Z,101645.72
2022-10-13T13:51:21.437Z,101653.59
2022-10-13T13:53:51.064Z,101651.84
2022-10-13T13:56:23.932Z,101654.41
2022-10-13T13:58:53.858Z,101652.63
2022-10-13T14:01:23.836Z,101663.97
2022-10-13T14:03:53.368Z,101664.44
2022-10-13T14:06:25.747Z,101666.59
2022-10-13T14:08:55.243Z,101665.44
2022-10-13T14:11:25.391Z,101671.44
2022-10-13T14:13:58.009Z,101667.84
2022-10-13T14:16:27.620Z,101680.63
2022-10-13T14:18:59.056Z,101674.13
2022-10-13T14:21:31.519Z,101677.63
2022-10-13T14:24:01.526Z,101679.28
2022-10-13T14:26:31.116Z,101677.44
2022-10-13T14:29:00.727Z,101685.25
2022-10-13T14:31:30.702Z,101689.53
2022-10-13T14:34:00.542Z,101680.72
2022-10-13T14:36:32.704Z,101671.00
2022-10-13T14:39:02.370Z,101681.38
2022-10-13T14:41:32.021Z,101680.38
2022-10-13T14:44:01.648Z,101668.25
2022-10-13T14:46:31.224Z,101677.16
2022-10-13T14:49:00.849Z,101665.09
2022-10-13T14:51:34.297Z,101665.22
2022-10-13T14:54:04.974Z,101664.44
2022-10-13T14:56:34.734Z,101664.59
2022-10-13T14:59:06.199Z,101660.31
2022-10-13T15:01:36.232Z,101657.94
2022-10-13T15:04:06.436Z,101656.41
2022-10-13T15:06:39.907Z,101651.38
2022-10-13T15:09:10.260Z,101648.41
2022-10-13T15:11:40.046Z,101657.19
2022-10-13T15:14:09.911Z,101675.41
2022-10-13T15:16:39.772Z,101680.16
2022-10-13T15:19:09.317Z,101673.91
2022-10-13T15:21:41.528Z,101677.28
2022-10-13T15:24:13.439Z,101672.19
2022-10-13T15:26:42.985Z,101667.84
2022-10-13T15:29:12.658Z,101656.44
2022-10-13T15:31:42.211Z,101657.25
2022-10-13T15:34:11.851Z,101647.69
2022-10-13T15:36:44.612Z,101659.84
2022-10-13T15:39:14.429Z,101658.88
2022-10-13T15:41:44.572Z,101659.66
2022-10-13T15:44:14.207Z,101664.88
2022-10-13T15:46:59.405Z,101673.56
2022-10-13T15:49:33.710Z,101663.97
2022-10-13T15:52:06.209Z,101668.16
2022-10-13T15:54:36.060Z,101668.22
2022-10-13T15:57:05.711Z,101668.28
2022-10-13T15:59:35.267Z,101663.81
2022-10-13T16:02:04.968Z,101669.94
2022-10-13T16:04:37.535Z,101668.13
2022-10-13T16:07:09.978Z,101668.09
2022-10-13T16:09:39.712Z,101664.59
2022-10-13T16:12:10.151Z,101670.72
2022-10-13T16:14:39.890Z,101668.13
2022-10-13T16:17:09.835Z,101672.41
2022-10-13T16:19:39.417Z,101682.16
2022-10-13T16:22:11.607Z,101685.72
2022-10-13T16:24:41.367Z,101679.50
2022-10-13T16:27:11.013Z,101684.75
2022-10-13T16:29:40.709Z,101684.66
2022-10-13T16:32:10.354Z,101681.00
2022-10-13T16:34:39.879Z,101672.06
2022-10-13T16:37:12.069Z,101685.97
2022-10-13T16:39:44.544Z,101682.34
2022-10-13T16:42:16.153Z,101693.63
2022-10-13T16:44:45.709Z,101690.88
2022-10-13T16:47:18.385Z,101693.38
2022-10-13T16:49:49.729Z,101695.03
2022-10-13T16:52:21.909Z,101693.97
2022-10-13T16:54:51.456Z,101704.31
2022-10-13T16:57:21.268Z,101709.38
2022-10-13T16:59:51.073Z,101704.81
2022-10-13T17:02:20.893Z,101713.44
2022-10-13T17:04:50.442Z,101711.53
2022-10-13T17:07:22.956Z,101716.56
2022-10-13T17:09:52.913Z,101711.09
2022-10-13T17:12:22.658Z,101713.56
2022-10-13T17:14:52.318Z,101715.09
2022-10-13T17:17:22.204Z,101710.53
2022-10-13T17:19:52.298Z,101718.19
2022-10-13T17:22:24.699Z,101725.84
2022-10-13T17:24:54.456Z,101737.91
2022-10-13T17:27:24.157Z,101735.91
2022-10-13T17:29:55.818Z,101744.47
2022-10-13T17:32:25.870Z,101737.28
2022-10-13T17:34:55.578Z,101743.25
2022-10-13T17:37:27.888Z,101745.69
2022-10-13T17:39:57.515Z,101736.84
2022-10-13T17:42:27.127Z,101733.19
2022-10-13T17:44:56.674Z,101741.72
2022-10-13T17:47:26.484Z,101737.06
2022-10-13T17:49:56.094Z,101733.44
2022-10-13T17:52:28.775Z,101736.75
2022-10-13T17:54:58.617Z,101741.81
2022-10-13T17:57:28.334Z,101745.94
2022-10-13T17:59:58.089Z,101744.97
2022-10-13T18:02:27.698Z,101752.78
2022-10-13T18:04:57.359Z,101749.97
2022-10-13T18:07:29.532Z,101752.44
2022-10-13T18:09:59.089Z,101750.47
2022-10-13T18:12:28.684Z,101757.41
2022-10-13T18:14:58.220Z,101753.00
2022-10-13T18:17:28.030Z,101760.72
2022-10-13T18:19:58.741Z,101765.75
2022-10-13T18:22:31.049Z,101763.03
2022-10-13T18:25:00.601Z,101762.00
2022-10-13T18:27:30.384Z,101760.91
2022-10-13T18:29:59.998Z,101768.72
2022-10-13T18:32:29.542Z,101771.22
2022-10-13T18:34:59.119Z,101775.41
2022-10-13T18:37:31.283Z,101776.25
2022-10-13T18:40:00.899Z,101767.47
2022-10-13T18:42:30.444Z,101762.97
2022-10-13T18:45:00.029Z,101768.00
2022-10-13T18:47:29.620Z,101765.22
2022-10-13T18:49:59.749Z,101755.38
2022-10-13T18:52:32.084Z,101764.84
2022-10-13T18:55:01.757Z,101755.94
2022-10-13T18:57:31.314Z,101755.84
2022-10-13T19:00:01.041Z,101756.53
2022-10-13T19:02:30.655Z,101756.31
2022-10-13T19:05:00.214Z,101764.88
2022-10-13T19:07:35.708Z,101760.34
2022-10-13T19:10:09.814Z,101761.91
2022-10-13T19:12:39.458Z,101765.34
2022-10-13T19:15:10.299Z,101756.50
2022-10-13T19:17:39.911Z,101755.50
2022-10-13T19:20:10.674Z,101765.75
2022-10-13T19:22:43.010Z,101760.22
2022-10-13T19:25:12.861Z,101763.63
2022-10-13T19:27:42.524Z,101768.75
2022-10-13T19:30:14.093Z,101767.69
2022-10-13T19:32:44.424Z,101769.25
2022-10-13T19:35:14.646Z,101765.78
2022-10-13T19:37:46.906Z,101766.50
2022-10-13T19:40:16.530Z,101769.13
2022-10-13T19:42:46.190Z,101765.56
2022-10-13T19:45:16.330Z,101771.50
2022-10-13T19:47:45.895Z,101782.66
2022-10-13T19:50:15.796Z,101780.88
2022-10-13T19:52:48.659Z,101779.81
2022-10-13T19:55:18.496Z,101777.88
2022-10-13T19:57:48.470Z,101775.25
2022-10-13T20:00:19.464Z,101777.75
2022-10-13T20:02:49.084Z,101780.31
2022-10-13T20:05:24.672Z,101780.19
2022-10-13T20:07:58.116Z,101783.56
2022-10-13T20:10:27.922Z,101781.66
2022-10-13T20:12:57.519Z,101783.28
2022-10-13T20:15:27.098Z,101791.81
2022-10-13T20:17:56.691Z,101787.31
2022-10-13T20:20:26.304Z,101783.69
2022-10-13T20:22:58.616Z,101795.84
2022-10-13T20:25:28.230Z,101791.31
2022-10-13T20:27:57.904Z,101789.53
2022-10-13T20:30:27.458Z,101788.66
2022-10-13T20:32:58.794Z,101786.94
2022-10-13T20:35:28.677Z,101780.75
2022-10-13T20:38:00.789Z,101785.81
2022-10-13T20:40:30.385Z,101786.56
2022-10-13T20:42:59.922Z,101792.69
2022-10-13T20:45:29.488Z,101793.63
2022-10-13T20:47:59.141Z,101789.44
2022-10-13T20:50:28.649Z,101793.88
2022-10-13T20:53:00.849Z,101794.06
2022-10-13T20:55:31.321Z,101784.56
2022-10-13T20:58:00.854Z,101796.16
2022-10-13T21:00:30.605Z,101787.78
2022-10-13T21:03:02.215Z,101790.75
2022-10-13T21:05:32.007Z,101797.94
2022-10-13T21:08:04.276Z,101789.56
2022-10-13T21:10:33.794Z,101786.28
2022-10-13T21:13:03.385Z,101778.63
2022-10-13T21:15:33.128Z,101774.34
2022-10-13T21:18:02.699Z,101774.41
2022-10-13T21:20:32.608Z,101769.22
2022-10-13T21:23:05.736Z,101767.34
2022-10-13T21:25:38.086Z,101766.28
2022-10-13T21:28:08.206Z,101765.31
2022-10-13T21:30:37.798Z,101762.53
2022-10-13T21:33:07.520Z,101759.75
2022-10-13T21:35:38.329Z,101763.13
2022-10-13T21:38:10.569Z,101758.63
2022-10-13T21:40:40.856Z,101768.19
2022-10-13T21:43:10.604Z,101756.78
2022-10-13T21:45:40.267Z,101758.41
2022-10-13T21:48:09.986Z,101757.50
2022-10-13T21:50:39.610Z,101758.34
2022-10-13T21:53:11.836Z,101750.63
2022-10-13T21:55:41.474Z,101752.50
2022-10-13T21:58:11.013Z,101752.63
2022-10-13T22:00:40.801Z,101749.19
2022-10-13T22:03:10.408Z,101748.41
2022-10-13T22:05:40.002Z,101739.91
2022-10-13T22:08:12.354Z,101738.38
2022-10-13T22:10:41.896Z,101736.81
2022-10-13T22:13:11.470Z,101733.53
2022-10-13T22:15:41.015Z,101735.25
2022-10-13T22:18:11.116Z,101729.31
2022-10-13T22:20:40.695Z,101730.31
2022-10-13T22:23:12.928Z,101723.56
2022-10-13T22:25:46.764Z,101717.50
2022-10-13T22:28:16.348Z,101727.97
2022-10-13T22:30:45.959Z,101730.41
2022-10-13T22:33:15.809Z,101722.53
2022-10-13T22:35:46.879Z,101719.84
2022-10-13T22:38:19.023Z,101725.97
2022-10-13T22:40:49.413Z,101730.38
2022-10-13T22:43:18.981Z,101727.91
2022-10-13T22:45:53.500Z,101728.91
2022-10-13T22:48:23.331Z,101718.63
2022-10-13T22:50:52.938Z,101716.34
2022-10-13T22:53:25.177Z,101711.47
2022-10-13T22:55:54.745Z,101696.63
2022-10-13T22:58:24.409Z,101704.56
2022-10-13T23:00:54.005Z,101693.31
2022-10-13T23:03:23.646Z,101684.66
2022-10-13T23:05:53.375Z,101689.81
2022-10-13T23:08:25.623Z,101680.19
2022-10-13T23:10:55.151Z,101684.59
2022-10-13T23:13:24.759Z,101684.38
2022-10-13T23:15:54.440Z,101677.22
2022-10-13T23:18:24.037Z,101683.19
2022-10-13T23:20:56.845Z,101695.19
2022-10-13T23:23:29.339Z,101698.53
2022-10-13T23:25:58.931Z,101704.81
2022-10-13T23:28:28.567Z,101700.47
2022-10-13T23:31:01.235Z,101701.44
2022-10-13T23:33:31.204Z,101698.91
2022-10-13T23:36:02.196Z,101686.88
2022-10-13T23:38:35.650Z,101688.78
2022-10-13T23:41:08.243Z,101689.25
2022-10-13T23:43:38.224Z,101686.88
2022-10-13T23:46:10.668Z,101691.38
2022-10-13T23:48:40.730Z,101686.25
2022-10-13T23:51:12.340Z,101680.22
2022-10-13T23:53:45.840Z,101682.94
2022-10-13T23:56:16.654Z,101684.88
2022-10-13T23:58:46.997Z,101685.06
